createdAt,value
2023-10-26T03:41:06.809Z,100.00
2023-10-26T03:44:10.147Z,100.00
2023-10-26T03:47:12.842Z,100.00
2023-10-26T03:50:16.053Z,100.00
2023-10-26T03:53:20.151Z,100.00
2023-10-26T03:56:23.717Z,100.00
2023-10-26T03:59:26.300Z,100.00
2023-10-26T04:02:29.261Z,100.00
2023-10-26T04:05:32.299Z,100.00
2023-10-26T04:08:35.124Z,100.00
2023-10-26T04:11:38.109Z,100.00
2023-10-26T04:14:40.853Z,100.00
2023-10-26T04:17:44.014Z,100.00
2023-10-26T04:20:46.814Z,100.00
2023-10-26T04:23:50.004Z,100.00
2023-10-26T04:26:52.712Z,100.00
2023-10-26T04:29:55.996Z,100.00
2023-10-26T04:32:59.037Z,100.00
2023-10-26T04:36:04.056Z,100.00
2023-10-26T04:39:09.499Z,100.00
2023-10-26T04:42:14.286Z,100.00
2023-10-26T04:45:17.172Z,100.00
2023-10-26T04:48:20.446Z,100.00
2023-10-26T04:51:23.267Z,100.00
2023-10-26T04:54:28.766Z,100.00
2023-10-26T04:57:31.778Z,100.00
2023-10-26T05:00:35.345Z,100.00
2023-10-26T05:03:39.345Z,100.00
2023-10-26T05:06:42.593Z,100.00
2023-10-26T05:09:45.325Z,100.00
2023-10-26T05:12:48.452Z,100.00
2023-10-26T05:15:51.434Z,100.00
2023-10-26T05:18:54.591Z,100.00
2023-10-26T05:21:57.465Z,100.00
2023-10-26T05:25:06.077Z,100.00
2023-10-26T05:28:09.063Z,100.00
2023-10-26T05:31:12.208Z,100.00
2023-10-26T05:34:15.165Z,100.00
2023-10-26T05:37:18.101Z,100.00
2023-10-26T05:40:21.077Z,100.00
2023-10-26T05:43:25.106Z,100.00
2023-10-26T05:46:27.563Z,100.00
2023-10-26T05:49:30.682Z,100.00
2023-10-26T05:52:33.514Z,100.00
2023-10-26T05:55:37.119Z,100.00
2023-10-26T05:58:39.540Z,100.00
2023-10-26T06:01:42.685Z,100.00
2023-10-26T06:04:45.693Z,100.00
2023-10-26T06:07:48.553Z,100.00
2023-10-26T06:10:51.505Z,100.00
2023-10-26T06:13:54.734Z,100.00
2023-10-26T06:16:57.862Z,100.00
2023-10-26T06:20:00.451Z,100.00
2023-10-26T06:23:03.648Z,100.00
2023-10-26T06:26:06.560Z,100.00
2023-10-26T06:29:09.792Z,100.00
2023-10-26T06:32:13.359Z,100.00
2023-10-26T06:35:17.073Z,100.00
2023-10-26T06:38:19.813Z,100.00
2023-10-26T06:41:25.785Z,100.00
2023-10-26T06:44:28.917Z,100.00
2023-10-26T06:47:32.139Z,100.00
2023-10-26T06:50:34.779Z,100.00
2023-10-26T06:53:38.101Z,100.00
2023-10-26T06:56:40.880Z,100.00
2023-10-26T06:59:44.097Z,100.00
2023-10-26T07:02:46.884Z,100.00
2023-10-26T07:05:50.145Z,100.00
2023-10-26T07:08:56.709Z,100.00
2023-10-26T07:12:00.003Z,100.00
2023-10-26T07:15:02.691Z,100.00
2023-10-26T07:18:06.854Z,100.00
2023-10-26T07:21:09.880Z,100.00
2023-10-26T07:24:13.186Z,100.00
2023-10-26T07:27:16.387Z,100.00
2023-10-26T07:30:19.536Z,100.00
2023-10-26T07:33:23.028Z,100.00
2023-10-26T07:36:27.986Z,100.00
2023-10-26T07:39:45.660Z,100.00
2023-10-26T07:42:51.259Z,100.00
2023-10-26T07:45:53.922Z,100.00
2023-10-26T07:48:56.986Z,100.00
2023-10-26T07:51:59.892Z,100.00
2023-10-26T07:55:04.690Z,100.00
2023-10-26T07:58:07.412Z,100.00
2023-10-26T08:01:10.911Z,100.00
2023-10-26T08:04:13.700Z,100.00
2023-10-26T08:07:16.299Z,100.00
2023-10-26T08:10:20.173Z,100.00
2023-10-26T08:13:23.284Z,100.00
2023-10-26T08:16:43.061Z,100.00
2023-10-26T08:19:47.568Z,100.00
2023-10-26T08:22:51.013Z,100.00
2023-10-26T08:25:53.903Z,100.00
2023-10-26T08:29:11.848Z,100.00
2023-10-26T08:32:19.302Z,100.00
2023-10-26T08:35:22.265Z,100.00
2023-10-26T08:38:24.997Z,100.00
2023-10-26T08:41:36.628Z,100.00
2023-10-26T08:44:41.291Z,100.00
2023-10-26T08:47:45.611Z,100.00
2023-10-26T08:50:49.829Z,100.00
2023-10-26T08:53:53.045Z,100.00
2023-10-26T08:56:55.718Z,100.00
2023-10-26T08:59:59.234Z,100.00
2023-10-26T09:03:04.109Z,100.00
2023-10-26T09:06:09.352Z,100.00
2023-10-26T09:09:12.110Z,100.00
2023-10-26T09:12:15.599Z,100.00
2023-10-26T09:15:18.507Z,100.00
2023-10-26T09:18:22.750Z,100.00
2023-10-26T09:21:25.607Z,100.00
2023-10-26T09:24:32.652Z,100.00
2023-10-26T09:27:36.625Z,100.00
2023-10-26T09:30:40.570Z,100.00
2023-10-26T09:33:43.493Z,100.00
2023-10-26T09:37:03.962Z,99.98
2023-10-26T09:40:16.313Z,100.00
2023-10-26T09:43:20.359Z,96.98
2023-10-26T09:46:24.065Z,97.05
2023-10-26T09:49:27.791Z,90.91
2023-10-26T09:52:32.591Z,86.98
2023-10-26T09:55:36.418Z,89.20
2023-10-26T09:58:43.213Z,91.66
2023-10-26T10:01:46.928Z,93.54
2023-10-26T10:04:50.295Z,92.59
2023-10-26T10:07:52.974Z,89.81
2023-10-26T10:11:16.925Z,87.74
2023-10-26T10:14:47.982Z,76.11
2023-10-26T10:17:50.994Z,78.77
2023-10-26T10:20:54.146Z,74.35
2023-10-26T10:23:57.285Z,77.24
2023-10-26T10:27:13.156Z,72.62
2023-10-26T10:30:22.648Z,80.55
2023-10-26T10:33:29.593Z,78.22
2023-10-26T10:37:11.514Z,73.95
2023-10-26T10:40:17.995Z,78.05
2023-10-26T10:43:39.417Z,76.87
2023-10-26T10:46:48.707Z,76.34
2023-10-26T10:49:51.714Z,70.50
2023-10-26T10:52:56.082Z,67.82
2023-10-26T10:55:59.666Z,68.22
2023-10-26T10:59:02.338Z,66.46
2023-10-26T11:02:13.319Z,66.86
2023-10-26T11:05:20.365Z,67.89
2023-10-26T11:08:23.884Z,66.54
2023-10-26T11:11:28.561Z,69.14
2023-10-26T11:14:31.669Z,68.33
2023-10-26T11:17:35.280Z,67.00
2023-10-26T11:20:48.937Z,65.29
2023-10-26T11:23:52.271Z,61.92
2023-10-26T11:27:14.709Z,64.29
2023-10-26T11:30:17.588Z,63.16
2023-10-26T11:33:33.610Z,63.10
2023-10-26T11:36:38.491Z,60.50
2023-10-26T11:39:50.759Z,60.46
2023-10-26T11:42:56.795Z,61.71
2023-10-26T11:46:04.619Z,63.21
2023-10-26T11:49:07.665Z,72.48
2023-10-26T11:52:10.878Z,70.02
2023-10-26T11:55:15.692Z,69.52
2023-10-26T11:58:19.266Z,66.33
2023-10-26T12:01:22.111Z,70.28
2023-10-26T12:04:25.111Z,70.51
2023-10-26T12:07:28.261Z,71.82
2023-10-26T12:10:31.249Z,71.75
2023-10-26T12:13:35.590Z,67.85
2023-10-26T12:16:39.265Z,63.05
2023-10-26T12:19:43.529Z,61.00
2023-10-26T12:22:49.712Z,57.68
2023-10-26T12:25:52.669Z,57.56
2023-10-26T12:28:55.963Z,60.39
2023-10-26T12:31:58.956Z,63.50
2023-10-26T12:35:02.287Z,64.87
2023-10-26T12:38:05.130Z,64.55
2023-10-26T12:41:08.307Z,64.52
2023-10-26T12:44:10.983Z,63.88
2023-10-26T12:47:13.827Z,65.19
2023-10-26T12:50:16.460Z,62.76
2023-10-26T12:53:19.392Z,62.73
2023-10-26T12:56:22.280Z,61.49
2023-10-26T12:59:25.267Z,59.15
2023-10-26T13:02:27.853Z,61.29
2023-10-26T13:05:30.837Z,59.96
2023-10-26T13:08:33.685Z,59.68
2023-10-26T13:11:36.529Z,58.47
2023-10-26T13:14:39.204Z,56.78
2023-10-26T13:17:42.227Z,57.43
2023-10-26T13:20:45.194Z,57.36
2023-10-26T13:23:48.295Z,58.30
2023-10-26T13:26:51.524Z,54.69
2023-10-26T13:29:54.616Z,49.12
2023-10-26T13:32:57.713Z,45.66
2023-10-26T13:36:00.585Z,41.37
2023-10-26T13:39:05.799Z,36.81
2023-10-26T13:42:08.747Z,35.17
2023-10-26T13:45:11.369Z,37.83
2023-10-26T13:48:16.133Z,40.56
2023-10-26T13:51:19.401Z,45.01
2023-10-26T13:54:22.544Z,47.12
2023-10-26T13:57:25.462Z,49.24
2023-10-26T14:00:28.511Z,48.29
2023-10-26T14:03:31.786Z,38.33
2023-10-26T14:06:34.513Z,31.61
2023-10-26T14:09:37.639Z,29.35
2023-10-26T14:12:40.557Z,29.89
2023-10-26T14:15:43.511Z,33.07
2023-10-26T14:18:46.482Z,37.52
2023-10-26T14:21:49.746Z,42.57
2023-10-26T14:24:52.407Z,47.46
2023-10-26T14:27:58.154Z,49.79
2023-10-26T14:31:01.914Z,52.50
2023-10-26T14:34:05.153Z,54.51
2023-10-26T14:37:08.061Z,57.06
2023-10-26T14:40:11.633Z,59.81
2023-10-26T14:43:15.304Z,63.48
2023-10-26T14:46:18.517Z,66.09
2023-10-26T14:49:21.166Z,70.58
2023-10-26T14:52:25.296Z,73.51
2023-10-26T14:55:29.036Z,75.52
2023-10-26T14:58:32.562Z,79.06
2023-10-26T15:01:35.547Z,80.57
2023-10-26T15:04:38.714Z,82.72
2023-10-26T15:07:41.709Z,83.38
2023-10-26T15:10:48.096Z,85.74
2023-10-26T15:13:50.724Z,86.24
2023-10-26T15:16:54.624Z,89.77
2023-10-26T15:19:57.453Z,88.92
2023-10-26T15:23:00.553Z,91.37
2023-10-26T15:26:04.832Z,92.33
2023-10-26T15:29:08.442Z,93.05
2023-10-26T15:32:11.616Z,95.56
